Time,TemperatureF,DewpointF,PressureIn,WindDirection,WindDirectionDegrees,WindSpeedMPH,WindSpeedGustMPH,Humidity,HourlyPrecipIn,Conditions,Clouds,dailyrainin,SoftwareType,DateUTC
2013-06-09 00:07:00,49.8,38.1,29.85,WSW,247,0.0,-999.0,64,-99.99,,,0.00,Acu-Link.com,2013-06-09 06:07:00,
2013-06-09 00:22:00,48.6,38.1,29.85,SSW,202,0.0,-999.0,67,-99.99,,,0.00,Acu-Link.com,2013-06-09 06:22:00,
2013-06-09 00:37:00,47.5,38.2,29.85,SSW,202,0.0,-999.0,70,-99.99,,,0.00,Acu-Link.com,2013-06-09 06:37:00,
2013-06-09 00:53:00,47.3,38.7,29.85,South,180,2.2,-999.0,72,-99.99,,,0.00,Acu-Link.com,2013-06-09 06:53:00,
2013-06-09 01:08:00,46.4,38.6,29.85,WNW,292,0.0,-999.0,74,-99.99,,,0.00,Acu-Link.com,2013-06-09 07:08:00,
2013-06-09 01:23:00,45.1,36.6,29.86,SW,225,0.0,-999.0,72,-99.99,,,0.00,Acu-Link.com,2013-06-09 07:23:00,
2013-06-09 01:39:00,45.0,36.5,29.87,South,180,0.0,-999.0,72,-99.99,,,0.00,Acu-Link.com,2013-06-09 07:39:00,
2013-06-09 01:54:00,43.7,37.6,29.87,West,270,0.0,-999.0,79,-99.99,,,0.00,Acu-Link.com,2013-06-09 07:54:00,
2013-06-09 02:09:00,43.0,37.3,29.87,North,0,0.0,-999.0,80,-99.99,,,0.00,Acu-Link.com,2013-06-09 08:09:00,
2013-06-09 02:24:00,42.1,37.6,29.87,West,270,2.2,-999.0,84,-99.99,,,0.00,Acu-Link.com,2013-06-09 08:24:00,
2013-06-09 02:39:00,40.6,38.5,29.88,ENE,67,0.0,-999.0,92,-99.99,,,0.00,Acu-Link.com,2013-06-09 08:39:00,
2013-06-09 02:54:00,39.9,39.4,29.89,West,270,0.0,-999.0,98,-99.99,,,0.00,Acu-Link.com,2013-06-09 08:54:00,
2013-06-09 03:10:00,38.5,38.0,29.89,SSW,202,1.7,-999.0,98,-99.99,,,0.00,Acu-Link.com,2013-06-09 09:10:00,
2013-06-09 03:25:00,38.5,38.0,29.89,NNE,22,2.7,-999.0,98,-99.99,,,0.00,Acu-Link.com,2013-06-09 09:25:00,
2013-06-09 03:40:00,39.7,36.7,29.90,NNW,337,2.7,-999.0,89,-99.99,,,0.00,Acu-Link.com,2013-06-09 09:40:00,
2013-06-09 03:56:00,39.6,36.3,29.91,NNE,22,3.2,-999.0,88,-99.99,,,0.00,Acu-Link.com,2013-06-09 09:56:00,
2013-06-09 04:11:00,37.8,35.7,29.91,NNW,337,2.2,-999.0,92,-99.99,,,0.00,Acu-Link.com,2013-06-09 10:11:00,
2013-06-09 04:27:00,36.3,35.8,29.91,NNW,337,1.7,-999.0,98,-99.99,,,0.00,Acu-Link.com,2013-06-09 10:27:00,
2013-06-09 04:42:00,36.0,35.5,29.92,NNE,22,2.2,-999.0,98,-99.99,,,0.00,Acu-Link.com,2013-06-09 10:42:00,
2013-06-09 04:57:00,36.1,35.6,29.92,West,270,0.0,-999.0,98,-99.99,,,0.00,Acu-Link.com,2013-06-09 10:57:00,
2013-06-09 05:13:00,35.2,34.7,29.93,SE,135,0.0,-999.0,98,-99.99,,,0.00,Acu-Link.com,2013-06-09 11:13:00,
2013-06-09 05:28:00,34.7,34.2,29.93,NNW,337,2.2,-999.0,98,-99.99,,,0.00,Acu-Link.com,2013-06-09 11:28:00,
2013-06-09 05:43:00,34.7,34.2,29.94,NE,45,0.0,-999.0,98,-99.99,,,0.00,Acu-Link.com,2013-06-09 11:43:00,
2013-06-09 05:58:00,34.0,33.5,29.94,WNW,292,0.0,-999.0,98,-99.99,,,0.00,Acu-Link.com,2013-06-09 11:58:00,
2013-06-09 06:13:00,36.7,36.2,29.95,ENE,67,2.2,-999.0,98,-99.99,,,0.00,Acu-Link.com,2013-06-09 12:13:00,
2013-06-09 06:29:00,41.4,37.8,29.96,NNE,22,2.2,-999.0,87,-99.99,,,0.00,Acu-Link.com,2013-06-09 12:29:00,
2013-06-09 06:44:00,45.1,38.0,29.96,NNE,22,2.2,-999.0,76,-99.99,,,0.00,Acu-Link.com,2013-06-09 12:44:00,
2013-06-09 06:59:00,49.8,38.5,29.96,ENE,67,4.2,-999.0,65,-99.99,,,0.00,Acu-Link.com,2013-06-09 12:59:00,
2013-06-09 07:15:00,50.7,39.8,29.96,NE,45,3.2,-999.0,66,-99.99,,,0.00,Acu-Link.com,2013-06-09 13:15:00,
2013-06-09 07:30:00,54.1,40.1,29.96,NNE,22,2.7,-999.0,59,-99.99,,,0.00,Acu-Link.com,2013-06-09 13:30:00,
2013-06-09 07:45:00,58.3,41.2,29.96,ESE,112,1.7,-999.0,53,-99.99,,,0.00,Acu-Link.com,2013-06-09 13:45:00,
2013-06-09 08:01:00,60.4,43.2,29.96,East,90,1.7,-999.0,53,-99.99,,,0.00,Acu-Link.com,2013-06-09 14:01:00,
2013-06-09 08:16:00,63.7,43.1,29.97,ENE,67,4.2,-999.0,47,-99.99,,,0.00,Acu-Link.com,2013-06-09 14:16:00,
2013-06-09 08:32:00,65.5,43.6,29.97,NE,45,2.2,-999.0,45,-99.99,,,0.00,Acu-Link.com,2013-06-09 14:32:00,
2013-06-09 08:47:00,69.4,44.7,29.97,NW,315,2.2,-999.0,41,-99.99,,,0.00,Acu-Link.com,2013-06-09 14:47:00,
2013-06-09 09:02:00,72.5,44.7,29.97,East,90,2.2,-999.0,37,-99.99,,,0.00,Acu-Link.com,2013-06-09 15:02:00,
2013-06-09 09:24:00,73.2,43.9,29.96,South,180,3.2,-999.0,35,-99.99,,,0.00,Acu-Link.com,2013-06-09 15:24:00,
2013-06-09 09:39:00,67.1,43.2,29.98,South,180,4.7,-999.0,42,-99.99,,,0.00,Acu-Link.com,2013-06-09 15:39:00,
2013-06-09 09:56:00,69.8,41.6,29.95,West,270,3.2,-999.0,36,-99.99,,,0.00,Acu-Link.com,2013-06-09 15:56:00,
2013-06-09 10:26:00,73.0,43.0,29.95,South,180,3.2,-999.0,34,-99.99,,,0.00,Acu-Link.com,2013-06-09 16:26:00,
2013-06-09 10:42:00,72.5,42.5,29.94,SSW,202,5.8,-999.0,34,-99.99,,,0.00,Acu-Link.com,2013-06-09 16:42:00,
2013-06-09 11:02:00,71.8,44.1,29.93,SSW,202,4.2,-999.0,37,-99.99,,,0.00,Acu-Link.com,2013-06-09 17:02:00,
2013-06-09 11:26:00,77.4,40.8,29.92,SSE,157,5.8,-999.0,27,-99.99,,,0.00,Acu-Link.com,2013-06-09 17:26:00,
2013-06-09 11:41:00,79.7,39.7,29.92,South,180,5.3,-999.0,24,-99.99,,,0.00,Acu-Link.com,2013-06-09 17:41:00,
2013-06-09 11:56:00,81.1,29.1,29.92,SSW,202,5.3,-999.0,15,-99.99,,,0.00,Acu-Link.com,2013-06-09 17:56:00,
2013-06-09 12:18:00,82.2,39.5,29.91,South,180,7.3,-999.0,22,-99.99,,,0.00,Acu-Link.com,2013-06-09 18:18:00,
2013-06-09 12:33:00,82.8,5.0,29.90,SE,135,4.7,-999.0,5,-99.99,,,0.00,Acu-Link.com,2013-06-09 18:33:00,
2013-06-09 12:50:00,83.5,31.0,29.90,South,180,4.7,-999.0,15,-99.99,,,0.00,Acu-Link.com,2013-06-09 18:50:00,
2013-06-09 13:05:00,83.7,5.6,29.89,SW,225,6.8,-999.0,5,-99.99,,,0.00,Acu-Link.com,2013-06-09 19:05:00,
2013-06-09 13:20:00,84.9,-25.9,29.88,SE,135,4.7,-999.0,1,-99.99,,,0.00,Acu-Link.com,2013-06-09 19:20:00,
2013-06-09 13:36:00,83.8,25.8,29.88,West,270,1.7,-999.0,12,-99.99,,,0.00,Acu-Link.com,2013-06-09 19:36:00,
2013-06-09 13:51:00,87.3,-24.5,29.88,ENE,67,5.3,-999.0,1,-99.99,,,0.00,Acu-Link.com,2013-06-09 19:51:00,
2013-06-09 14:06:00,86.0,-25.3,29.88,SSW,202,2.2,-999.0,1,-99.99,,,0.00,Acu-Link.com,2013-06-09 20:06:00,
2013-06-09 14:36:00,87.3,-24.5,29.87,WSW,247,3.7,-999.0,1,-99.99,,,0.00,Acu-Link.com,2013-06-09 20:36:00,
2013-06-09 14:52:00,85.6,-25.5,29.87,NNE,22,9.9,-999.0,1,-99.99,,,0.00,Acu-Link.com,2013-06-09 20:52:00,
2013-06-09 15:07:00,85.5,-25.6,29.85,WNW,292,6.8,-999.0,1,-99.99,,,0.00,Acu-Link.com,2013-06-09 21:07:00,
2013-06-09 15:22:00,85.6,-25.5,29.85,North,0,11.9,-999.0,1,-99.99,,,0.00,Acu-Link.com,2013-06-09 21:22:00,
2013-06-09 15:37:00,85.8,-25.4,29.84,North,0,11.9,-999.0,1,-99.99,,,0.00,Acu-Link.com,2013-06-09 21:37:00,
2013-06-09 15:52:00,84.2,-26.3,29.84,NNW,337,7.8,-999.0,1,-99.99,,,0.00,Acu-Link.com,2013-06-09 21:52:00,
2013-06-09 16:07:00,84.0,-26.5,29.83,North,0,10.9,-999.0,1,-99.99,,,0.00,Acu-Link.com,2013-06-09 22:07:00,
2013-06-09 16:22:00,84.2,-26.3,29.84,NNW,337,9.4,-999.0,1,-99.99,,,0.00,Acu-Link.com,2013-06-09 22:22:00,
2013-06-09 16:38:00,84.7,-26.1,29.84,North,0,6.8,-999.0,1,-99.99,,,0.00,Acu-Link.com,2013-06-09 22:38:00,
2013-06-09 16:53:00,84.9,-25.9,29.83,NE,45,7.3,-999.0,1,-99.99,,,0.00,Acu-Link.com,2013-06-09 22:53:00,
2013-06-09 17:08:00,84.4,-26.2,29.84,NNW,337,2.7,-999.0,1,-99.99,,,0.00,Acu-Link.com,2013-06-09 23:08:00,
2013-06-09 17:23:00,83.7,-26.6,29.84,NE,45,2.7,-999.0,1,-99.99,,,0.00,Acu-Link.com,2013-06-09 23:23:00,
2013-06-09 17:39:00,82.9,5.1,29.83,NE,45,5.8,-999.0,5,-99.99,,,0.00,Acu-Link.com,2013-06-09 23:39:00,
2013-06-09 17:54:00,83.5,23.5,29.84,South,180,4.7,-999.0,11,-99.99,,,0.00,Acu-Link.com,2013-06-09 23:54:00,
2013-06-09 18:09:00,82.0,-27.7,29.83,WNW,292,4.7,-999.0,1,-99.99,,,0.00,Acu-Link.com,2013-06-10 00:09:00,
2013-06-09 18:24:00,79.3,36.0,29.83,West,270,3.7,-999.0,21,-99.99,,,0.00,Acu-Link.com,2013-06-10 00:24:00,
2013-06-09 18:40:00,78.4,35.2,29.84,NE,45,2.7,-999.0,21,-99.99,,,0.00,Acu-Link.com,2013-06-10 00:40:00,
2013-06-09 18:55:00,76.3,38.9,29.84,SW,225,4.7,-999.0,26,-99.99,,,0.00,Acu-Link.com,2013-06-10 00:55:00,
2013-06-09 19:10:00,75.0,40.6,29.85,WSW,247,1.1,-999.0,29,-99.99,,,0.00,Acu-Link.com,2013-06-10 01:10:00,
2013-06-09 19:26:00,73.2,39.9,29.86,North,0,0.0,-999.0,30,-99.99,,,0.00,Acu-Link.com,2013-06-10 01:26:00,
2013-06-09 19:56:00,70.3,41.3,29.86,NW,315,1.7,-999.0,35,-99.99,,,0.00,Acu-Link.com,2013-06-10 01:56:00,
2013-06-09 20:12:00,68.5,40.5,29.85,SW,225,0.0,-999.0,36,-99.99,,,0.00,Acu-Link.com,2013-06-10 02:12:00,
2013-06-09 20:27:00,66.9,41.8,29.86,NNW,337,0.0,-999.0,40,-99.99,,,0.00,Acu-Link.com,2013-06-10 02:27:00,
2013-06-09 20:42:00,65.7,44.3,29.87,WSW,247,0.0,-999.0,46,-99.99,,,0.00,Acu-Link.com,2013-06-10 02:42:00,
2013-06-09 20:58:00,63.0,42.5,29.87,NNW,337,0.0,-999.0,47,-99.99,,,0.00,Acu-Link.com,2013-06-10 02:58:00,
2013-06-09 21:14:00,61.2,41.4,29.87,ESE,112,0.0,-999.0,48,-99.99,,,0.00,Acu-Link.com,2013-06-10 03:14:00,
2013-06-09 21:30:00,59.7,42.0,29.87,SW,225,0.0,-999.0,52,-99.99,,,0.00,Acu-Link.com,2013-06-10 03:30:00,
2013-06-09 21:46:00,59.4,43.7,29.89,SSE,157,0.0,-999.0,56,-99.99,,,0.00,Acu-Link.com,2013-06-10 03:46:00,
2013-06-09 22:01:00,57.9,43.2,29.89,SW,225,0.0,-999.0,58,-99.99,,,0.00,Acu-Link.com,2013-06-10 04:01:00,
2013-06-09 22:17:00,56.8,42.6,29.90,West,270,0.0,-999.0,59,-99.99,,,0.00,Acu-Link.com,2013-06-10 04:17:00,
2013-06-09 22:32:00,55.2,42.0,29.90,South,180,0.0,-999.0,61,-99.99,,,0.00,Acu-Link.com,2013-06-10 04:32:00,
2013-06-09 22:47:00,54.5,40.5,29.91,NNE,22,2.2,-999.0,59,-99.99,,,0.00,Acu-Link.com,2013-06-10 04:47:00,
2013-06-09 23:04:00,54.1,41.0,29.91,NNE,22,0.0,-999.0,61,-99.99,,,0.00,Acu-Link.com,2013-06-10 05:04:00,
2013-06-09 23:19:00,55.0,41.4,29.91,South,180,0.0,-999.0,60,-99.99,,,0.00,Acu-Link.com,2013-06-10 05:19:00,
2013-06-09 23:34:00,52.3,40.5,29.91,SSE,157,0.0,-999.0,64,-99.99,,,0.00,Acu-Link.com,2013-06-10 05:34:00,
2013-06-09 23:50:00,52.9,40.2,29.92,WSW,247,0.0,-999.0,62,-99.99,,,0.00,Acu-Link.com,2013-06-10 05:50:00,